Holesov, Czech Republic
Current Conditions -  °F | °C
As of 2:30 PM on Friday 28 Nov 2014 (Local Time) from LKMT Reporting Station
Haze Haze  
Wind Chill: 30°   Ceiling: 1300
Heat Index: 36°   Visibility: 2.8mi
Dew Point: 30°   Wind: 7mph
Humidity: 81%   Direction: 40°NE
Pressure: 30.09"   Gusts: NA
Location:  49.34°N, 17.58°E
Report Text: LKMT 281230Z 04006KT 4500 BR OVC013 02/M01 Q1019 NOSIG
Loading
Personal Weather Stations






























Interactive Weather Map New forecast layout! Learn more

10-Day Weather Forecast

Advertisements
Track Severe Weather on mobile